Time;durP1;ratioP1;P1;durP2;ratioP2;P2;SDS_P1;SDS_P2;PMS_P1;PMS_P2;Temp;Humidity;BMP_temperature;BMP_pressure;BME280_temperature;BME280_humidity;BME280_pressure;Samples;Min_cycle;Max_cycle;Signal;HPM_P1;HPM_P2
2023/12/11 00:01:40;;;;;;;0.90;0.30;;;;;;;7.65;100.00;96306.59;5061154;28;20045;-60
2023/12/11 00:04:07;;;;;;;0.38;0.20;;;;;;;7.62;100.00;96314.38;5073849;28;20506;-60
2023/12/11 00:06:34;;;;;;;1.23;0.30;;;;;;;7.50;100.00;96315.38;5076635;28;20044;-60
2023/12/11 00:09:00;;;;;;;1.02;0.20;;;;;;;7.35;100.00;96312.56;5072037;28;20108;-60
2023/12/11 00:11:27;;;;;;;1.45;0.30;;;;;;;7.22;100.00;96303.84;5069586;28;20053;-60
2023/12/11 00:13:53;;;;;;;2.13;0.55;;;;;;;7.10;100.00;96293.25;5071920;28;20044;-60
2023/12/11 00:16:20;;;;;;;3.60;0.43;;;;;;;7.00;100.00;96290.47;5065246;28;20036;-60
2023/12/11 00:18:48;;;;;;;2.30;0.20;;;;;;;6.93;100.00;96284.50;5060487;28;20033;-60
2023/12/11 00:21:16;;;;;;;2.00;0.32;;;;;;;6.93;100.00;96284.50;5075557;28;20529;-60
2023/12/11 00:23:42;;;;;;;0.75;0.40;;;;;;;6.85;100.00;96297.34;5060133;28;20048;-60
2023/12/11 00:26:10;;;;;;;1.63;0.60;;;;;;;6.97;100.00;96307.94;5078347;28;20036;-60
2023/12/11 00:28:37;;;;;;;0.50;0.40;;;;;;;7.03;100.00;96314.19;5062287;28;20412;-60
2023/12/11 00:31:07;;;;;;;0.75;0.40;;;;;;;6.98;100.00;96317.66;5076773;28;20044;-60
2023/12/11 00:33:38;;;;;;;3.10;0.80;;;;;;;6.98;100.00;96309.59;5058712;28;20605;-60
2023/12/11 00:36:05;;;;;;;1.33;0.40;;;;;;;7.04;100.00;96305.03;5060386;28;20043;-60
2023/12/11 00:38:32;;;;;;;2.30;0.63;;;;;;;7.11;100.00;96318.31;5065340;28;20037;-60
2023/12/11 00:40:58;;;;;;;2.67;0.60;;;;;;;7.16;100.00;96312.97;5069272;28;20047;-60
2023/12/11 00:43:25;;;;;;;1.88;0.40;;;;;;;7.12;100.00;96328.78;5070771;28;20042;-60
2023/12/11 00:45:52;;;;;;;1.40;0.57;;;;;;;7.15;100.00;96330.19;5069985;28;20040;-61
2023/12/11 00:48:18;;;;;;;1.33;0.50;;;;;;;7.19;100.00;96335.88;5057076;28;20048;-60
2023/12/11 00:50:45;;;;;;;1.15;0.28;;;;;;;7.25;100.00;96343.72;5057367;28;20099;-61
2023/12/11 00:53:12;;;;;;;0.60;0.40;;;;;;;7.38;100.00;96342.47;5059787;28;20047;-60
2023/12/11 00:55:38;;;;;;;0.43;0.28;;;;;;;7.42;100.00;96346.28;5049241;28;20102;-61
2023/12/11 00:58:05;;;;;;;1.52;0.40;;;;;;;7.44;100.00;96340.66;5052594;28;20116;-61
2023/12/11 01:00:31;;;;;;;1.23;0.40;;;;;;;7.55;100.00;96341.53;5044302;28;20041;-60
2023/12/11 01:02:58;;;;;;;0.35;0.28;;;;;;;7.64;100.00;96337.31;5053740;28;20067;-61
2023/12/11 01:05:25;;;;;;;0.63;0.30;;;;;;;7.52;100.00;96325.91;5046695;28;20695;-61
2023/12/11 01:07:52;;;;;;;0.77;0.30;;;;;;;7.50;100.00;96326.16;5047666;28;20037;-60
2023/12/11 01:10:18;;;;;;;1.27;0.40;;;;;;;7.56;100.00;96329.72;5055162;28;20579;-60
2023/12/11 01:12:45;;;;;;;0.63;0.25;;;;;;;7.62;100.00;96322.44;5047811;28;20056;-61
2023/12/11 01:15:12;;;;;;;0.77;0.30;;;;;;;7.72;100.00;96329.81;5054841;28;20097;-61
2023/12/11 01:17:38;;;;;;;1.10;0.30;;;;;;;7.73;100.00;96321.47;5060979;28;21115;-61
2023/12/11 01:20:08;;;;;;;0.90;0.10;;;;;;;7.79;100.00;96323.13;5045901;28;20114;-60
2023/12/11 01:22:35;;;;;;;0.45;0.20;;;;;;;8.16;100.00;96313.34;5060817;28;20064;-60
2023/12/11 01:25:02;;;;;;;0.55;0.30;;;;;;;8.40;100.00;96304.03;5047443;28;20160;-61
2023/12/11 01:27:29;;;;;;;0.35;0.25;;;;;;;8.64;100.00;96304.38;5052601;28;20049;-61
2023/12/11 01:29:57;;;;;;;0.85;0.30;;;;;;;8.79;100.00;96300.09;5044468;28;20066;-60
2023/12/11 01:32:24;;;;;;;1.00;0.40;;;;;;;8.85;100.00;96296.34;5055326;28;20067;-60
2023/12/11 01:34:50;;;;;;;2.45;0.30;;;;;;;8.77;100.00;96308.44;5058708;28;20060;-61
2023/12/11 01:37:18;;;;;;;0.52;0.30;;;;;;;8.78;100.00;96303.88;5043729;28;20123;-60
2023/12/11 01:39:45;;;;;;;0.57;0.20;;;;;;;8.70;100.00;96299.81;5052313;28;20040;-60
2023/12/11 01:42:11;;;;;;;0.65;0.30;;;;;;;8.78;100.00;96301.19;5059017;28;20600;-60
2023/12/11 01:44:38;;;;;;;0.93;0.30;;;;;;;8.67;100.00;96298.44;5057220;28;20044;-60
2023/12/11 01:47:06;;;;;;;3.50;0.20;;;;;;;8.64;100.00;96300.88;5063380;28;20115;-61
2023/12/11 01:49:34;;;;;;;0.88;0.30;;;;;;;8.60;100.00;96303.28;5044632;28;20040;-60
2023/12/11 01:52:01;;;;;;;0.80;0.52;;;;;;;8.70;100.00;96299.81;5057739;28;20120;-60
2023/12/11 01:54:29;;;;;;;1.05;0.30;;;;;;;8.72;100.00;96308.44;5052863;28;20456;-60
2023/12/11 01:56:56;;;;;;;0.98;0.38;;;;;;;8.78;100.00;96295.78;5061547;28;20041;-60
2023/12/11 01:59:23;;;;;;;2.22;0.55;;;;;;;8.64;100.00;96293.59;5058963;28;20119;-60
2023/12/11 02:01:49;;;;;;;1.77;0.30;;;;;;;8.54;100.00;96304.34;5043745;28;20044;-61
2023/12/11 02:04:16;;;;;;;0.40;0.20;;;;;;;8.58;100.00;96308.13;5046587;28;20040;-61
2023/12/11 02:06:43;;;;;;;1.27;0.30;;;;;;;8.59;100.00;96310.56;5046847;28;20052;-60
2023/12/11 02:09:10;;;;;;;0.50;0.30;;;;;;;8.64;100.00;96319.75;5057955;28;20037;-61
2023/12/11 02:11:37;;;;;;;0.45;0.20;;;;;;;8.58;100.00;96314.34;5046677;28;20063;-61
2023/12/11 02:14:04;;;;;;;1.30;0.22;;;;;;;8.65;100.00;96303.31;5051001;28;20500;-61
2023/12/11 02:16:30;;;;;;;2.17;0.60;;;;;;;8.57;100.00;96303.81;5050422;28;20059;-60
2023/12/11 02:18:57;;;;;;;1.48;0.77;;;;;;;8.54;100.00;96312.44;5048189;28;20033;-60
2023/12/11 02:21:24;;;;;;;0.38;0.20;;;;;;;8.62;100.00;96320.03;5052017;28;20416;-61
2023/12/11 02:24:08;;;;;;;0.98;0.30;;;;;;;8.77;100.00;96302.25;5054862;28;20060;-61
2023/12/11 02:26:34;;;;;;;2.10;0.50;;;;;;;8.85;100.00;96294.44;5030057;28;20733;-61
2023/12/11 02:29:01;;;;;;;0.80;0.40;;;;;;;8.85;100.00;96293.66;5053431;28;20693;-61
2023/12/11 02:31:28;;;;;;;1.33;0.30;;;;;;;8.76;100.00;96292.53;5049162;28;20064;-61
2023/12/11 02:33:54;;;;;;;1.90;0.20;;;;;;;8.74;100.00;96292.00;5059313;28;20045;-61
2023/12/11 02:36:21;;;;;;;1.98;0.50;;;;;;;8.69;100.00;96306.28;5056165;28;20090;-61
2023/12/11 02:38:48;;;;;;;0.73;0.30;;;;;;;8.54;100.00;96301.66;5047096;28;20098;-61
2023/12/11 02:41:15;;;;;;;0.70;0.22;;;;;;;8.45;100.00;96307.53;5042184;28;20083;-61
2023/12/11 02:43:41;;;;;;;0.88;0.40;;;;;;;8.51;100.00;96307.56;5052779;28;20132;-61
2023/12/11 02:46:08;;;;;;;0.57;0.30;;;;;;;8.40;100.00;96312.91;5055547;28;20040;-61
2023/12/11 02:48:35;;;;;;;2.05;0.40;;;;;;;8.33;100.00;96318.53;5053990;28;20417;-60
2023/12/11 02:51:02;;;;;;;0.30;0.20;;;;;;;8.35;100.00;96317.47;5055011;28;20036;-61
2023/12/11 02:53:28;;;;;;;1.90;0.30;;;;;;;8.35;100.00;96303.97;5048101;28;20053;-61
2023/12/11 02:55:55;;;;;;;4.95;0.93;;;;;;;8.35;100.00;96312.88;5049011;28;20044;-61
2023/12/11 02:58:21;;;;;;;2.33;0.30;;;;;;;8.28;100.00;96307.75;5043664;28;20489;-61
2023/12/11 03:00:48;;;;;;;1.35;0.40;;;;;;;8.23;100.00;96307.72;5053373;28;20049;-61
2023/12/11 03:03:15;;;;;;;1.23;0.47;;;;;;;8.18;100.00;96292.31;5053616;28;20045;-61
2023/12/11 03:05:41;;;;;;;2.25;0.40;;;;;;;8.12;100.00;96301.47;5048162;28;20048;-61
2023/12/11 03:08:08;;;;;;;0.50;0.20;;;;;;;8.07;100.00;96304.94;5051682;28;20041;-61
2023/12/11 03:10:35;;;;;;;0.80;0.20;;;;;;;8.04;100.00;96302.75;5044275;28;20483;-61
2023/12/11 03:13:01;;;;;;;0.30;0.22;;;;;;;8.03;100.00;96301.16;5044487;28;20508;-61
2023/12/11 03:15:30;;;;;;;0.73;0.40;;;;;;;8.03;100.00;96297.63;5045631;28;20068;-61
2023/12/11 03:17:57;;;;;;;1.58;0.30;;;;;;;8.02;100.00;96309.50;5052963;28;20033;-61
2023/12/11 03:20:24;;;;;;;1.20;0.38;;;;;;;7.98;100.00;96311.09;5057239;28;20509;-61
2023/12/11 03:22:50;;;;;;;0.95;0.22;;;;;;;7.91;100.00;96322.94;5058321;28;20092;-61
2023/12/11 03:25:17;;;;;;;0.30;0.20;;;;;;;7.88;100.00;96315.34;5045281;28;20051;-61
2023/12/11 03:27:43;;;;;;;0.47;0.30;;;;;;;7.88;100.00;96303.75;5055035;28;20045;-63
2023/12/11 03:30:10;;;;;;;1.75;0.22;;;;;;;7.83;100.00;96317.19;5054297;28;20032;-62
2023/12/11 03:32:37;;;;;;;0.30;0.20;;;;;;;7.78;100.00;96315.31;5054931;28;20063;-61
2023/12/11 03:35:04;;;;;;;1.85;0.20;;;;;;;7.73;100.00;96312.56;5050246;28;20041;-62
2023/12/11 03:37:30;;;;;;;0.73;0.30;;;;;;;7.66;100.00;96310.09;5054522;28;20047;-61
2023/12/11 03:39:58;;;;;;;0.65;0.20;;;;;;;7.62;100.00;96304.41;5051117;28;20105;-61
2023/12/11 03:42:24;;;;;;;0.10;0.10;;;;;;;7.60;100.00;96300.38;5047581;28;20132;-61
2023/12/11 03:44:51;;;;;;;0.70;0.20;;;;;;;7.60;100.00;96292.28;5048886;28;20059;-61
2023/12/11 03:47:17;;;;;;;1.58;0.40;;;;;;;7.58;100.00;96284.44;5055979;28;20036;-61
2023/12/11 03:49:44;;;;;;;1.10;0.20;;;;;;;7.55;100.00;96291.19;5054019;28;20044;-61
2023/12/11 03:52:11;;;;;;;0.63;0.20;;;;;;;7.62;100.00;96300.91;5054661;28;20041;-61
2023/12/11 03:54:37;;;;;;;1.27;0.55;;;;;;;7.70;100.00;96292.34;5055940;28;20545;-61
2023/12/11 03:57:04;;;;;;;1.15;0.32;;;;;;;7.65;100.00;96281.53;5043276;28;20068;-61
2023/12/11 03:59:32;;;;;;;2.17;0.40;;;;;;;7.59;100.00;96280.69;5058005;28;20650;-61
2023/12/11 04:01:59;;;;;;;0.55;0.20;;;;;;;7.53;100.00;96274.44;5059865;28;20044;-61
2023/12/11 04:04:26;;;;;;;0.20;0.20;;;;;;;7.58;100.00;96279.06;5053741;28;20048;-61
2023/12/11 04:06:52;;;;;;;0.80;0.32;;;;;;;7.53;100.00;96268.25;5048468;28;20492;-61
2023/12/11 04:09:19;;;;;;;0.50;0.20;;;;;;;7.52;100.00;96262.06;5043055;28;20041;-61
2023/12/11 04:11:46;;;;;;;2.00;0.20;;;;;;;7.50;100.00;96260.69;5050293;28;20043;-61
2023/12/11 04:14:12;;;;;;;1.08;0.20;;;;;;;7.52;100.00;96272.84;5057089;28;20135;-61
2023/12/11 04:16:41;;;;;;;0.20;0.20;;;;;;;7.56;100.00;96286.59;5054318;28;20052;-61
2023/12/11 04:19:09;;;;;;;0.65;0.20;;;;;;;7.55;100.00;96299.25;5055178;28;20040;-61
2023/12/11 04:21:36;;;;;;;1.15;0.40;;;;;;;7.51;100.00;96292.75;5054047;28;20047;-61
2023/12/11 04:24:03;;;;;;;0.82;0.40;;;;;;;7.47;100.00;96297.03;5048126;28;20565;-61
2023/12/11 04:26:30;;;;;;;0.28;0.20;;;;;;;7.45;100.00;96301.88;5055044;28;20123;-61
2023/12/11 04:28:57;;;;;;;0.73;0.50;;;;;;;7.41;100.00;96300.78;5062840;28;20123;-61
2023/12/11 04:31:23;;;;;;;0.32;0.28;;;;;;;7.40;100.00;96307.22;5058002;28;20044;-61
2023/12/11 04:33:50;;;;;;;0.50;0.30;;;;;;;7.42;100.00;96305.09;5047710;28;20040;-61
2023/12/11 04:36:17;;;;;;;1.17;0.30;;;;;;;7.45;100.00;96293.00;5047662;28;20614;-61
2023/12/11 04:38:43;;;;;;;1.33;0.40;;;;;;;7.46;100.00;96306.19;5052817;28;20052;-61
2023/12/11 04:41:10;;;;;;;1.50;0.40;;;;;;;7.48;100.00;96308.63;5049047;28;20049;-61
2023/12/11 04:43:37;;;;;;;0.50;0.30;;;;;;;7.41;100.00;96303.47;5049131;28;20041;-61
2023/12/11 04:46:03;;;;;;;1.15;0.55;;;;;;;7.37;100.00;96297.78;5046823;28;20037;-61
2023/12/11 04:48:30;;;;;;;1.75;0.40;;;;;;;7.34;100.00;96295.59;5045035;28;20120;-61
2023/12/11 04:50:57;;;;;;;1.55;0.95;;;;;;;7.36;100.00;96277.31;5054912;28;20048;-61
2023/12/11 04:53:23;;;;;;;0.60;0.40;;;;;;;7.31;100.00;96279.16;5044761;28;20411;-61
2023/12/11 04:55:50;;;;;;;1.45;0.50;;;;;;;7.28;100.00;96278.59;5050606;28;20616;-61
2023/12/11 04:58:17;;;;;;;0.63;0.40;;;;;;;7.31;100.00;96276.44;5046499;28;20059;-61
2023/12/11 05:00:43;;;;;;;1.10;0.60;;;;;;;7.31;100.00;96279.97;5057458;28;20557;-61
2023/12/11 05:03:10;;;;;;;1.10;0.30;;;;;;;7.35;100.00;96275.69;5063661;28;20042;-61
2023/12/11 05:05:37;;;;;;;2.65;0.50;;;;;;;7.39;100.00;96276.78;5049261;28;20049;-61
2023/12/11 05:08:04;;;;;;;0.38;0.20;;;;;;;7.41;100.00;96271.94;5048524;28;20041;-61
2023/12/11 05:10:32;;;;;;;1.75;0.30;;;;;;;7.42;100.00;96272.78;5053523;28;20044;-61
2023/12/11 05:12:59;;;;;;;0.40;0.20;;;;;;;7.36;100.00;96282.69;5051296;28;20041;-61
2023/12/11 05:15:25;;;;;;;1.83;0.88;;;;;;;7.37;100.00;96289.69;5063781;28;20040;-61
2023/12/11 05:17:52;;;;;;;2.45;0.70;;;;;;;7.44;100.00;96294.06;5045306;28;20044;-61
2023/12/11 05:20:19;;;;;;;1.15;0.60;;;;;;;7.52;100.00;96285.50;5052501;28;20041;-61
2023/12/11 05:22:46;;;;;;;1.65;0.68;;;;;;;7.51;100.00;96275.78;5042059;28;20063;-61
2023/12/11 05:25:12;;;;;;;2.38;0.93;;;;;;;7.50;100.00;96258.00;5054256;28;20624;-61
2023/12/11 05:27:39;;;;;;;2.80;0.70;;;;;;;7.44;100.00;96264.44;5051155;28;20049;-61
2023/12/11 05:30:07;;;;;;;1.23;0.70;;;;;;;7.38;100.00;96250.91;5051850;28;20087;-61
2023/12/11 05:32:34;;;;;;;1.88;0.80;;;;;;;7.30;100.00;96240.66;5052951;28;20523;-61
2023/12/11 05:35:01;;;;;;;2.05;0.60;;;;;;;7.29;100.00;96253.28;5043946;28;20515;-61
2023/12/11 05:37:27;;;;;;;1.25;0.38;;;;;;;7.32;100.00;96237.69;5049139;28;20049;-61
2023/12/11 05:39:54;;;;;;;1.75;0.47;;;;;;;7.34;100.00;96225.56;5055604;28;20060;-61
2023/12/11 05:42:41;;;;;;;1.40;0.28;;;;;;;7.39;100.00;96209.47;5054651;28;20044;-61
2023/12/11 05:45:09;;;;;;;2.10;0.50;;;;;;;7.41;100.00;96209.22;5054417;28;20667;-61
2023/12/11 05:47:36;;;;;;;0.40;0.30;;;;;;;7.39;100.00;96219.41;5048716;28;20094;-61
2023/12/11 05:50:03;;;;;;;1.67;0.50;;;;;;;7.43;100.00;96239.38;5056267;28;20047;-61
2023/12/11 05:52:30;;;;;;;2.63;0.77;;;;;;;7.45;100.00;96248.03;5046597;28;20427;-61
2023/12/11 05:54:56;;;;;;;1.10;0.60;;;;;;;7.37;100.00;96251.19;5048650;28;20044;-61
2023/12/11 05:57:23;;;;;;;4.78;0.52;;;;;;;7.26;100.00;96248.41;5048044;28;20041;-61
2023/12/11 05:59:49;;;;;;;1.75;0.60;;;;;;;7.17;100.00;96255.34;5046884;28;20072;-61
2023/12/11 06:02:16;;;;;;;2.55;0.70;;;;;;;7.14;100.00;96255.84;5046024;28;20071;-61
2023/12/11 06:04:43;;;;;;;2.72;0.80;;;;;;;7.09;100.00;96242.38;5043345;28;20048;-61
2023/12/11 06:07:09;;;;;;;3.45;0.93;;;;;;;7.03;100.00;96241.50;5048169;28;20075;-61
2023/12/11 06:09:36;;;;;;;1.23;0.60;;;;;;;7.03;100.00;96231.56;5047426;28;20551;-60
2023/12/11 06:12:04;;;;;;;2.45;0.50;;;;;;;7.00;100.00;96242.00;5053353;28;20041;-60
2023/12/11 06:14:31;;;;;;;1.40;0.73;;;;;;;7.00;100.00;96240.16;5053430;28;20082;-60
2023/12/11 06:16:57;;;;;;;2.10;0.60;;;;;;;6.96;100.00;96232.88;5047743;28;20045;-61
2023/12/11 06:19:24;;;;;;;1.75;0.50;;;;;;;6.89;100.00;96241.94;5046336;28;20037;-60
2023/12/11 06:21:51;;;;;;;1.95;0.80;;;;;;;6.83;100.00;96253.75;5045792;28;20119;-60
2023/12/11 06:24:17;;;;;;;1.88;0.70;;;;;;;6.75;100.00;96262.28;5052087;28;20063;-60
2023/12/11 06:26:44;;;;;;;3.85;2.47;;;;;;;6.66;100.00;96266.50;5048118;28;20056;-60
2023/12/11 06:29:11;;;;;;;4.05;1.90;;;;;;;6.54;100.00;96253.19;5060416;28;20045;-60
2023/12/11 06:31:37;;;;;;;1.60;0.90;;;;;;;6.55;100.00;96252.09;5049300;28;20055;-60
2023/12/11 06:34:04;;;;;;;4.50;2.05;;;;;;;6.50;100.00;96247.50;5045103;28;20120;-61
2023/12/11 06:36:31;;;;;;;7.97;4.82;;;;;;;6.43;100.00;96238.81;5044794;28;20599;-60
2023/12/11 06:38:58;;;;;;;322.90;152.68;;;;;;;6.20;100.00;96225.41;5039661;28;20048;-60
2023/12/11 06:41:25;;;;;;;144.38;71.93;;;;;;;6.13;100.00;96218.59;5044160;28;20033;-60
2023/12/11 06:43:53;;;;;;;20.33;9.70;;;;;;;5.99;100.00;96222.47;5054561;28;20044;-60
2023/12/11 06:46:20;;;;;;;10.73;4.22;;;;;;;5.99;100.00;96235.91;5048620;28;20083;-61
2023/12/11 06:48:47;;;;;;;4.97;1.95;;;;;;;5.99;100.00;96248.53;5042947;28;20644;-60
2023/12/11 06:51:17;;;;;;;40.95;22.42;;;;;;;5.96;100.00;96252.53;5046726;28;20531;-60
2023/12/11 06:53:44;;;;;;;114.35;70.55;;;;;;;5.78;100.00;96247.47;5043341;28;20045;-61
2023/12/11 06:56:20;;;;;;;85.38;49.42;;;;;;;5.67;100.00;96252.69;5043081;28;20043;-60
2023/12/11 06:58:47;;;;;;;7.82;3.85;;;;;;;5.68;100.00;96253.50;5045442;28;20045;-60
2023/12/11 07:01:14;;;;;;;6.25;2.55;;;;;;;5.65;100.00;96245.94;5040135;28;20055;-60
2023/12/11 07:03:41;;;;;;;18.92;13.63;;;;;;;5.58;100.00;96238.88;5043652;28;20052;-60
2023/12/11 07:06:09;;;;;;;10.45;5.95;;;;;;;5.59;100.00;96235.13;5043966;28;20041;-60
2023/12/11 07:08:36;;;;;;;16.15;9.10;;;;;;;5.73;100.00;96238.28;5041598;28;20163;-60
2023/12/11 07:11:03;;;;;;;6.93;2.67;;;;;;;5.82;100.00;96241.34;5048249;28;20123;-60
2023/12/11 07:13:31;;;;;;;1.35;0.77;;;;;;;5.94;100.00;96245.78;5043454;28;20033;-60
2023/12/11 07:15:58;;;;;;;2.67;0.98;;;;;;;6.01;100.00;96237.53;5043649;28;20079;-60
2023/12/11 07:18:25;;;;;;;12.55;9.45;;;;;;;5.80;100.00;96227.34;5044431;28;20460;-60
2023/12/11 07:20:52;;;;;;;6.75;3.60;;;;;;;5.84;100.00;96227.66;5042428;28;20036;-60
2023/12/11 07:23:18;;;;;;;9.30;4.55;;;;;;;5.89;100.00;96234.97;5043709;28;20051;-60
2023/12/11 07:25:47;;;;;;;3.53;1.77;;;;;;;5.91;100.00;96230.97;5056563;28;20052;-60
2023/12/11 07:28:13;;;;;;;4.15;1.52;;;;;;;5.97;100.00;96235.34;5041697;28;20704;-60
2023/12/11 07:30:40;;;;;;;3.40;1.38;;;;;;;6.07;100.00;96223.09;5049521;28;20048;-60
2023/12/11 07:33:08;;;;;;;5.80;2.58;;;;;;;6.12;100.00;96228.56;5042016;28;20446;-60
2023/12/11 07:35:35;;;;;;;7.47;2.38;;;;;;;6.17;100.00;96212.50;5053202;28;20074;-60
2023/12/11 07:38:03;;;;;;;8.43;2.00;;;;;;;6.20;100.00;96200.41;5043781;28;20049;-60
2023/12/11 07:40:29;;;;;;;4.03;1.42;;;;;;;6.23;100.00;96208.78;5043699;28;20053;-60
2023/12/11 07:42:56;;;;;;;2.53;0.90;;;;;;;6.33;100.00;96197.31;5042276;28;20530;-60
2023/12/11 07:45:24;;;;;;;4.25;1.30;;;;;;;6.44;100.00;96205.47;5044576;28;20568;-60
2023/12/11 07:47:50;;;;;;;7.03;1.42;;;;;;;6.49;100.00;96205.56;5051014;28;20098;-61
2023/12/11 07:50:17;;;;;;;3.17;1.02;;;;;;;6.48;100.00;96212.78;5048373;28;20110;-60
2023/12/11 07:52:44;;;;;;;2.30;0.73;;;;;;;6.54;100.00;96218.22;5043502;28;20625;-60
2023/12/11 07:55:10;;;;;;;2.50;0.80;;;;;;;6.59;100.00;96235.22;5044545;28;20040;-61
2023/12/11 07:57:37;;;;;;;1.55;0.70;;;;;;;6.62;100.00;96234.72;5041713;28;20040;-59
2023/12/11 08:00:05;;;;;;;3.33;0.80;;;;;;;6.64;100.00;96240.63;5056914;28;20304;-60
2023/12/11 08:02:34;;;;;;;3.72;1.20;;;;;;;6.68;100.00;96253.59;5053163;28;20064;-61
2023/12/11 08:05:02;;;;;;;3.00;1.05;;;;;;;6.72;100.00;96268.97;5060479;28;20115;-60
2023/12/11 08:07:29;;;;;;;2.83;1.00;;;;;;;6.81;100.00;96263.13;5053616;28;20539;-60
2023/12/11 08:09:56;;;;;;;1.52;0.70;;;;;;;6.96;100.00;96265.16;5044502;28;20053;-61
2023/12/11 08:12:25;;;;;;;5.00;1.10;;;;;;;7.03;100.00;96258.47;5050363;28;20083;-61
2023/12/11 08:14:52;;;;;;;4.47;0.95;;;;;;;7.21;100.00;96256.47;5056621;28;20147;-60
2023/12/11 08:17:19;;;;;;;1.42;0.63;;;;;;;7.43;100.00;96250.16;5055601;28;20068;-60
2023/12/11 08:19:45;;;;;;;1.10;0.55;;;;;;;7.49;100.00;96245.63;5055807;28;20411;-61
2023/12/11 08:22:13;;;;;;;2.45;0.70;;;;;;;7.51;100.00;96244.28;5048889;28;20103;-61
2023/12/11 08:24:40;;;;;;;2.67;1.13;;;;;;;7.60;100.00;96228.44;5052247;28;20056;-61
2023/12/11 08:27:07;;;;;;;1.75;0.80;;;;;;;7.70;100.00;96233.06;5055300;28;20041;-60
2023/12/11 08:29:35;;;;;;;2.55;0.82;;;;;;;7.87;100.00;96224.81;5051044;28;20131;-60
2023/12/11 08:32:02;;;;;;;4.43;1.27;;;;;;;7.96;100.00;96227.00;5045313;28;20500;-60
2023/12/11 08:34:31;;;;;;;4.85;1.33;;;;;;;7.96;100.00;96227.78;5048214;28;20060;-60
2023/12/11 08:36:58;;;;;;;3.35;0.70;;;;;;;8.02;100.00;96213.28;5051331;28;20115;-60
2023/12/11 08:39:25;;;;;;;4.55;1.25;;;;;;;8.06;100.00;96225.16;5058296;28;20037;-60
2023/12/11 08:41:51;;;;;;;4.65;2.60;;;;;;;8.06;100.00;96218.94;5052056;28;20087;-61
2023/12/11 08:44:18;;;;;;;2.38;0.75;;;;;;;8.28;100.00;96226.00;5050629;28;20060;-61
2023/12/11 08:46:45;;;;;;;7.63;3.30;;;;;;;8.31;100.00;96225.50;5044709;28;20144;-61
2023/12/11 08:49:11;;;;;;;2.40;0.80;;;;;;;8.35;100.00;96218.50;5050520;28;20040;-61
2023/12/11 08:51:38;;;;;;;4.00;1.42;;;;;;;8.52;100.00;96228.25;5047133;28;20112;-61
2023/12/11 08:54:05;;;;;;;5.22;2.25;;;;;;;8.52;100.00;96231.72;5059395;28;20587;-61
2023/12/11 08:56:32;;;;;;;3.88;2.42;;;;;;;8.53;100.00;96241.50;5057532;28;20072;-61
2023/12/11 08:58:58;;;;;;;4.68;1.85;;;;;;;8.58;100.00;96251.47;5043859;28;20488;-61
2023/12/11 09:01:25;;;;;;;4.50;0.82;;;;;;;8.71;100.00;96240.16;5053206;28;20036;-61
2023/12/11 09:03:52;;;;;;;1.50;0.60;;;;;;;8.85;100.00;96243.16;5051336;28;20052;-61
2023/12/11 09:06:19;;;;;;;1.50;0.47;;;;;;;8.96;100.00;96252.06;5060947;28;20040;-62
2023/12/11 09:08:46;;;;;;;2.45;0.60;;;;;;;9.10;100.00;96256.94;5045022;28;20076;-62
2023/12/11 09:11:12;;;;;;;2.10;0.90;;;;;;;9.13;100.00;96240.19;5051952;28;20037;-62
2023/12/11 09:13:40;;;;;;;2.47;0.90;;;;;;;9.18;100.00;96250.19;5042731;28;20051;-62
2023/12/11 09:16:07;;;;;;;2.38;0.70;;;;;;;9.19;100.00;96231.03;5049276;28;20051;-62
2023/12/11 09:18:34;;;;;;;5.45;0.70;;;;;;;9.13;100.00;96234.00;5052211;28;20119;-62
2023/12/11 09:21:00;;;;;;;1.02;0.55;;;;;;;9.28;100.00;96241.28;5052610;28;20063;-62
2023/12/11 09:23:29;;;;;;;1.17;0.35;;;;;;;9.30;100.00;96255.31;5053944;28;20132;-61
2023/12/11 09:25:55;;;;;;;3.05;0.60;;;;;;;9.34;100.00;96264.50;5044469;28;20052;-61
2023/12/11 09:28:22;;;;;;;2.00;0.47;;;;;;;9.40;100.00;96257.19;5052226;28;20530;-60
2023/12/11 09:30:48;;;;;;;4.22;0.60;;;;;;;9.41;100.00;96261.50;5045761;28;20029;-61
2023/12/11 09:33:15;;;;;;;3.45;0.57;;;;;;;9.47;100.00;96252.34;5059191;28;20788;-60
2023/12/11 09:35:43;;;;;;;1.75;0.70;;;;;;;9.48;100.00;96262.06;5060253;28;20044;-61
2023/12/11 09:38:10;;;;;;;3.67;0.80;;;;;;;9.47;100.00;96258.53;5051221;28;20045;-61
2023/12/11 09:40:36;;;;;;;3.08;0.65;;;;;;;9.58;100.00;96256.63;5053291;28;20446;-60
2023/12/11 09:43:04;;;;;;;2.40;0.50;;;;;;;9.66;100.00;96246.34;5042868;28;20041;-60
2023/12/11 09:45:31;;;;;;;4.40;0.60;;;;;;;9.74;100.00;96238.47;5044272;28;20446;-61
2023/12/11 09:47:58;;;;;;;2.45;1.23;;;;;;;9.64;100.00;96243.91;5057693;28;20049;-61
2023/12/11 09:50:39;;;;;;;2.60;0.60;;;;;;;9.84;100.00;96228.75;5050055;28;20041;-61
2023/12/11 09:53:08;;;;;;;2.13;0.70;;;;;;;9.97;100.00;96221.91;5048348;28;20094;-61
2023/12/11 09:55:35;;;;;;;2.40;0.40;;;;;;;10.14;100.00;96219.69;5057707;28;20131;-61
2023/12/11 09:58:03;;;;;;;2.33;0.70;;;;;;;10.26;100.00;96213.97;5043090;28;20051;-61
2023/12/11 10:00:30;;;;;;;1.58;0.40;;;;;;;10.36;100.00;96228.53;5055842;28;20079;-61
2023/12/11 10:03:00;;;;;;;0.93;0.30;;;;;;;10.46;100.00;96228.47;5051723;28;20463;-61
2023/12/11 10:05:27;;;;;;;2.70;0.60;;;;;;;10.53;100.00;96222.75;5050068;28;20051;-62
2023/12/11 10:07:54;;;;;;;1.23;0.30;;;;;;;10.43;100.00;96222.78;5052688;28;20040;-61
2023/12/11 10:10:27;;;;;;;1.33;0.38;;;;;;;10.38;100.00;96221.75;5047295;28;20041;-61
2023/12/11 10:12:55;;;;;;;4.50;1.05;;;;;;;10.36;100.00;96223.09;5042016;28;20045;-62
2023/12/11 10:15:27;;;;;;;2.60;0.82;;;;;;;10.46;100.00;96228.47;5054614;28;20048;-61
2023/12/11 10:18:11;;;;;;;3.45;0.90;;;;;;;10.61;100.00;96221.38;5049685;28;21138;-61
2023/12/11 10:20:41;;;;;;;3.15;0.50;;;;;;;10.66;100.00;96218.63;5055503;28;20052;-59
2023/12/11 10:23:14;;;;;;;3.78;0.40;;;;;;;10.84;100.00;96227.16;5055845;28;20631;-60
2023/12/11 10:25:43;;;;;;;6.22;0.98;;;;;;;10.95;100.00;96227.91;5044967;28;20055;-61
2023/12/11 10:28:12;;;;;;;2.97;0.70;;;;;;;11.04;100.00;96232.44;5047059;28;20119;-59
2023/12/11 10:30:50;;;;;;;2.83;0.63;;;;;;;11.00;98.47;96228.69;5052750;28;20056;-60
2023/12/11 10:33:21;;;;;;;2.88;0.75;;;;;;;10.95;98.08;96214.34;5057172;28;20534;-62
2023/12/11 10:35:48;;;;;;;7.18;0.75;;;;;;;10.80;99.75;96211.47;5045243;28;20045;-59
2023/12/11 10:38:27;;;;;;;5.32;0.60;;;;;;;10.90;97.73;96215.19;5047596;28;20075;-59
2023/12/11 10:40:55;;;;;;;3.15;0.75;;;;;;;10.85;99.51;96197.09;5050025;28;20365;-61
2023/12/11 10:43:22;;;;;;;2.70;0.50;;;;;;;11.00;97.33;96206.19;5058390;28;20491;-61
2023/12/11 10:45:49;;;;;;;4.25;1.00;;;;;;;10.92;97.93;96213.81;5051070;28;20085;-60
2023/12/11 10:48:19;;;;;;;6.28;1.27;;;;;;;10.98;99.11;96230.06;5043562;28;20076;-59
2023/12/11 10:50:47;;;;;;;3.05;0.70;;;;;;;11.02;96.74;96228.41;5046738;28;20072;-61
2023/12/11 10:53:15;;;;;;;4.07;0.98;;;;;;;11.01;96.41;96233.00;5044746;28;20079;-60
2023/12/11 10:55:43;;;;;;;3.35;0.63;;;;;;;11.13;97.15;96238.03;5054947;28;20051;-60
2023/12/11 10:58:10;;;;;;;7.10;0.93;;;;;;;11.00;97.50;96219.72;5056103;28;20068;-61
2023/12/11 11:00:38;;;;;;;3.30;0.57;;;;;;;11.02;95.69;96210.22;5056828;28;20040;-60
2023/12/11 11:03:08;;;;;;;4.78;1.08;;;;;;;10.98;97.49;96214.59;5043919;28;20040;-61
2023/12/11 11:05:36;;;;;;;6.75;1.70;;;;;;;10.99;96.56;96210.78;5041499;28;20049;-61
2023/12/11 11:08:35;;;;;;;2.85;1.05;;;;;;;10.99;94.67;96224.31;5048399;28;20126;-61
2023/12/11 11:11:23;;;;;;;2.40;0.90;;;;;;;10.92;93.22;96235.47;5058333;28;20068;-61
2023/12/11 11:14:08;;;;;;;6.90;1.30;;;;;;;10.92;92.00;96227.34;5039027;28;20051;-60
2023/12/11 11:16:55;;;;;;;5.50;1.25;;;;;;;11.03;91.15;96244.34;5050702;28;20045;-61
2023/12/11 11:19:22;;;;;;;6.68;1.10;;;;;;;11.06;91.80;96218.63;5046346;28;20641;-60
2023/12/11 11:22:02;;;;;;;7.10;1.30;;;;;;;11.08;90.58;96235.38;5052841;28;20095;-61
2023/12/11 11:24:30;;;;;;;5.47;1.13;;;;;;;11.08;92.01;96224.53;5055836;28;20139;-61
2023/12/11 11:26:57;;;;;;;4.93;0.98;;;;;;;11.02;89.34;96240.03;5055547;28;20043;-61
2023/12/11 11:29:43;;;;;;;5.88;0.70;;;;;;;10.91;91.39;96231.16;5058139;28;20829;-61
2023/12/11 11:32:11;;;;;;;8.38;1.13;;;;;;;10.69;92.74;96228.09;5034218;28;20128;-61
2023/12/11 11:34:40;;;;;;;4.68;0.88;;;;;;;10.67;92.14;96233.78;5044926;28;20037;-61